createdAt,value
2022-10-20T00:00:58.382Z,5.55
2022-10-20T00:03:27.050Z,5.50
2022-10-20T00:05:55.424Z,5.53
2022-10-20T00:08:23.163Z,4.97
2022-10-20T00:10:56.193Z,5.18
2022-10-20T00:13:24.074Z,5.38
2022-10-20T00:15:52.844Z,5.53
2022-10-20T00:18:21.236Z,5.10
2022-10-20T00:20:49.251Z,5.40
2022-10-20T00:23:17.041Z,5.88
2022-10-20T00:25:44.792Z,4.65
2022-10-20T00:28:13.932Z,5.43
2022-10-20T00:30:41.718Z,5.35
2022-10-20T00:33:09.569Z,5.45
2022-10-20T00:35:39.387Z,5.43
2022-10-20T00:38:07.138Z,5.43
2022-10-20T00:40:34.913Z,5.43
2022-10-20T00:43:02.591Z,5.57
2022-10-20T00:45:31.688Z,5.82
2022-10-20T00:48:05.681Z,6.07
2022-10-20T00:50:41.486Z,5.75
2022-10-20T00:53:09.447Z,6.20
2022-10-20T00:55:41.690Z,5.60
2022-10-20T00:58:10.022Z,5.30
2022-10-20T01:00:40.993Z,5.63
2022-10-20T01:03:13.753Z,5.28
2022-10-20T01:05:41.495Z,6.43
2022-10-20T01:08:09.251Z,5.38
2022-10-20T01:10:42.340Z,5.90
2022-10-20T01:13:20.573Z,6.20
2022-10-20T01:15:58.795Z,6.53
2022-10-20T01:18:30.920Z,6.32
2022-10-20T01:21:33.236Z,5.68
2022-10-20T01:24:31.378Z,6.05
2022-10-20T01:27:33.431Z,6.55
2022-10-20T01:30:09.262Z,5.57
2022-10-20T01:32:54.814Z,6.32
2022-10-20T01:35:30.756Z,6.15
2022-10-20T01:40:33.672Z,5.57
2022-10-20T01:43:05.224Z,6.22
2022-10-20T01:45:37.764Z,5.93
2022-10-20T01:48:08.422Z,6.35
2022-10-20T01:50:37.834Z,6.32
2022-10-20T01:53:05.675Z,6.72
2022-10-20T01:55:34.544Z,6.57
2022-10-20T01:58:29.355Z,7.43
2022-10-20T02:01:06.568Z,6.35
2022-10-20T02:03:42.672Z,5.55
2022-10-20T02:06:22.815Z,5.93
2022-10-20T02:08:54.804Z,6.38
2022-10-20T02:11:27.124Z,5.63
2022-10-20T02:13:57.609Z,5.43
2022-10-20T02:16:29.541Z,6.60
2022-10-20T02:21:27.079Z,5.28
2022-10-20T02:23:57.414Z,6.22
2022-10-20T02:26:26.284Z,6.82
2022-10-20T02:28:58.212Z,7.18
2022-10-20T02:31:27.408Z,7.03
2022-10-20T02:33:57.570Z,7.00
2022-10-20T02:36:28.990Z,6.13
2022-10-20T02:38:57.032Z,6.50
2022-10-20T02:41:24.788Z,6.28
2022-10-20T02:43:52.476Z,5.95
2022-10-20T02:46:20.193Z,5.95
2022-10-20T02:48:50.263Z,6.80
2022-10-20T02:51:18.606Z,6.47
2022-10-20T02:53:46.573Z,6.80
2022-10-20T02:56:14.358Z,6.25
2022-10-20T02:58:42.104Z,7.18
2022-10-20T03:01:09.886Z,6.15
2022-10-20T03:03:37.623Z,5.97
2022-10-20T03:06:11.129Z,5.88
2022-10-20T03:08:38.941Z,6.38
2022-10-20T03:11:07.308Z,5.88
2022-10-20T03:13:35.114Z,6.57
2022-10-20T03:16:03.256Z,6.13
2022-10-20T03:18:30.977Z,6.70
2022-10-20T03:20:58.737Z,6.40
2022-10-20T03:23:27.790Z,5.78
2022-10-20T03:26:01.453Z,6.13
2022-10-20T03:28:29.189Z,7.32
2022-10-20T03:30:56.901Z,6.18
2022-10-20T03:33:24.724Z,8.90
2022-10-20T03:35:52.423Z,6.32
2022-10-20T03:38:20.370Z,6.72
2022-10-20T03:40:49.449Z,6.47
2022-10-20T03:43:17.206Z,6.70
2022-10-20T03:45:45.422Z,5.90
2022-10-20T03:48:13.904Z,6.80
2022-10-20T03:50:42.285Z,6.25
2022-10-20T03:53:13.647Z,6.13
2022-10-20T03:55:41.369Z,6.07
2022-10-20T03:58:10.509Z,6.45
2022-10-20T04:00:38.401Z,6.18
2022-10-20T04:03:06.106Z,5.57
2022-10-20T04:05:33.828Z,5.97
2022-10-20T04:08:01.559Z,6.18
2022-10-20T04:10:29.284Z,5.70
2022-10-20T04:12:59.070Z,6.13
2022-10-20T04:15:28.554Z,6.18
2022-10-20T04:17:56.352Z,5.47
2022-10-20T04:20:24.257Z,5.50
2022-10-20T04:22:52.269Z,5.93
2022-10-20T04:25:20.007Z,6.53
2022-10-20T04:27:47.809Z,6.53
2022-10-20T04:30:15.491Z,5.55
2022-10-20T04:32:44.543Z,5.45
2022-10-20T04:35:12.253Z,5.68
2022-10-20T04:37:40.079Z,5.70
2022-10-20T04:40:09.216Z,5.97
2022-10-20T04:42:36.907Z,6.82
2022-10-20T04:45:05.023Z,6.57
2022-10-20T04:47:33.801Z,5.78
2022-10-20T04:50:03.159Z,6.60
2022-10-20T04:52:30.894Z,6.68
2022-10-20T04:54:58.653Z,6.70
2022-10-20T04:57:26.691Z,6.35
2022-10-20T04:59:54.409Z,7.00
2022-10-20T05:02:22.188Z,6.65
2022-10-20T05:04:49.871Z,5.90
2022-10-20T05:07:18.933Z,6.72
2022-10-20T05:09:46.644Z,6.13
2022-10-20T05:14:42.052Z,7.35
2022-10-20T05:17:10.109Z,7.38
2022-10-20T05:19:37.976Z,6.85
2022-10-20T05:22:05.655Z,7.47
2022-10-20T05:24:34.720Z,6.45
2022-10-20T05:27:02.481Z,7.07
2022-10-20T05:29:30.297Z,7.32
2022-10-20T05:31:58.108Z,7.50
2022-10-20T05:34:25.806Z,7.18
2022-10-20T05:36:54.167Z,7.22
2022-10-20T05:39:23.056Z,8.27
2022-10-20T05:41:52.086Z,8.25
2022-10-20T05:44:19.852Z,9.05
2022-10-20T05:46:47.631Z,8.35
2022-10-20T05:49:17.452Z,7.65
2022-10-20T05:51:46.730Z,8.00
2022-10-20T05:54:15.936Z,8.18
2022-10-20T05:56:43.740Z,8.57
2022-10-20T05:59:13.169Z,8.48
2022-10-20T06:01:48.098Z,8.20
2022-10-20T06:04:17.331Z,8.88
2022-10-20T06:06:45.243Z,8.88
2022-10-20T06:09:13.271Z,8.23
2022-10-20T06:11:41.302Z,8.73
2022-10-20T06:14:10.005Z,8.98
2022-10-20T06:16:39.605Z,9.57
2022-10-20T06:19:07.757Z,9.32
2022-10-20T06:21:37.120Z,9.43
2022-10-20T06:24:06.753Z,9.95
2022-10-20T06:26:37.241Z,9.30
2022-10-20T06:29:06.381Z,9.93
2022-10-20T06:31:36.039Z,9.32
2022-10-20T06:34:07.865Z,9.55
2022-10-20T06:36:37.090Z,10.32
2022-10-20T06:39:06.997Z,9.63
2022-10-20T06:41:35.636Z,9.63
2022-10-20T06:44:03.618Z,8.80
2022-10-20T06:46:34.193Z,9.85
2022-10-20T06:49:03.500Z,10.45
2022-10-20T06:51:33.396Z,8.95
2022-10-20T06:54:02.200Z,9.15
2022-10-20T06:56:32.357Z,8.88
2022-10-20T06:59:01.521Z,11.27
2022-10-20T07:01:31.268Z,10.02
2022-10-20T07:04:01.458Z,9.27
2022-10-20T07:06:33.159Z,9.57
2022-10-20T07:09:00.996Z,10.25
2022-10-20T07:11:30.344Z,10.98
2022-10-20T07:13:59.816Z,10.00
2022-10-20T07:16:29.595Z,11.52
2022-10-20T07:18:57.840Z,10.90
2022-10-20T07:21:32.288Z,10.13
2022-10-20T07:24:07.371Z,10.23
2022-10-20T07:26:36.913Z,9.65
2022-10-20T07:29:05.449Z,8.82
2022-10-20T07:31:36.793Z,9.57
2022-10-20T07:34:23.405Z,8.43
2022-10-20T07:36:52.551Z,9.88
2022-10-20T07:39:21.911Z,8.82
2022-10-20T07:41:56.384Z,9.77
2022-10-20T07:44:24.372Z,11.38
2022-10-20T07:46:52.321Z,10.93
2022-10-20T07:52:07.813Z,11.57
2022-10-20T07:54:37.091Z,12.20
2022-10-20T07:57:04.974Z,11.85
2022-10-20T07:59:32.692Z,11.45
2022-10-20T08:02:00.665Z,10.65
2022-10-20T08:04:31.264Z,9.45
2022-10-20T08:06:59.030Z,10.23
2022-10-20T08:09:26.887Z,9.88
2022-10-20T08:11:56.336Z,10.13
2022-10-20T08:14:26.711Z,10.00
2022-10-20T08:16:54.487Z,10.05
2022-10-20T08:19:22.413Z,10.63
2022-10-20T08:21:50.205Z,10.07
2022-10-20T08:24:17.888Z,12.52
2022-10-20T08:26:45.650Z,10.00
2022-10-20T08:29:14.751Z,9.20
2022-10-20T08:31:44.256Z,8.65
2022-10-20T08:34:12.164Z,9.77
2022-10-20T08:36:39.919Z,8.57
2022-10-20T08:39:07.655Z,8.60
2022-10-20T08:42:02.553Z,9.63
2022-10-20T08:44:32.399Z,8.77
2022-10-20T08:47:02.089Z,9.85
2022-10-20T08:49:32.590Z,8.77
2022-10-20T08:52:00.394Z,7.88
2022-10-20T08:54:28.141Z,7.65
2022-10-20T08:56:55.968Z,8.07
2022-10-20T08:59:29.698Z,9.32
2022-10-20T09:01:58.555Z,9.95
2022-10-20T09:04:30.771Z,10.13
2022-10-20T09:07:02.507Z,9.00
2022-10-20T09:09:31.893Z,9.57
2022-10-20T09:12:06.484Z,9.15
2022-10-20T09:14:37.325Z,9.17
2022-10-20T09:17:09.153Z,9.43
2022-10-20T09:19:39.584Z,9.98
2022-10-20T09:22:08.451Z,8.57
2022-10-20T09:24:37.956Z,11.13
2022-10-20T09:27:22.157Z,10.10
2022-10-20T09:29:51.339Z,9.73
2022-10-20T09:35:25.002Z,9.35
2022-10-20T09:37:57.450Z,9.90
2022-10-20T09:40:27.048Z,10.13
2022-10-20T09:42:57.694Z,9.73
2022-10-20T09:45:29.469Z,10.15
2022-10-20T09:48:02.542Z,9.48
2022-10-20T09:50:32.837Z,9.82
2022-10-20T09:53:05.198Z,9.32
2022-10-20T09:55:35.961Z,9.93
2022-10-20T09:58:05.901Z,10.75
2022-10-20T10:00:38.277Z,9.95
2022-10-20T10:03:21.839Z,10.65
2022-10-20T10:05:53.564Z,9.55
2022-10-20T10:08:24.084Z,9.80
2022-10-20T10:11:03.931Z,11.63
2022-10-20T10:13:39.777Z,10.48
2022-10-20T10:16:10.864Z,9.32
2022-10-20T10:18:39.512Z,9.15
2022-10-20T10:21:09.377Z,10.65
2022-10-20T10:23:41.009Z,9.93
2022-10-20T10:26:43.852Z,9.38
2022-10-20T10:29:19.272Z,8.82
2022-10-20T10:31:56.807Z,7.75
2022-10-20T10:34:33.356Z,17.33
2022-10-20T10:37:01.309Z,12.98
2022-10-20T10:39:31.968Z,9.00
2022-10-20T10:42:32.997Z,8.65
2022-10-20T10:45:08.977Z,8.85
2022-10-20T10:48:00.988Z,5.75
2022-10-20T10:50:37.949Z,13.57
2022-10-20T10:53:19.819Z,7.63
2022-10-20T10:55:55.580Z,4.45
2022-10-20T10:58:36.359Z,3.58
2022-10-20T11:01:14.620Z,5.32
2022-10-20T11:04:00.902Z,4.85
2022-10-20T11:09:11.917Z,6.25
2022-10-20T11:11:49.835Z,5.15
2022-10-20T11:14:31.602Z,5.38
2022-10-20T11:17:17.132Z,5.53
2022-10-20T11:20:02.867Z,5.38
2022-10-20T11:22:44.056Z,6.28
2022-10-20T11:25:23.356Z,5.57
2022-10-20T11:27:51.813Z,4.88
2022-10-20T11:30:22.121Z,4.57
2022-10-20T11:32:56.716Z,5.20
2022-10-20T11:35:34.867Z,5.53
2022-10-20T11:38:15.947Z,5.35
2022-10-20T11:40:49.203Z,4.70
2022-10-20T11:43:21.785Z,4.90
2022-10-20T11:45:54.089Z,5.80
2022-10-20T11:48:26.875Z,5.38
2022-10-20T11:51:18.506Z,5.07
2022-10-20T11:54:06.635Z,5.10
2022-10-20T11:56:59.596Z,7.93
2022-10-20T11:59:45.924Z,6.00
2022-10-20T12:05:27.384Z,5.88
2022-10-20T12:08:29.832Z,6.95
2022-10-20T12:11:05.280Z,6.40
2022-10-20T12:13:39.899Z,6.72
2022-10-20T12:16:07.737Z,6.88
2022-10-20T12:18:36.758Z,6.47
2022-10-20T12:21:06.077Z,6.00
2022-10-20T12:24:07.262Z,6.88
2022-10-20T12:26:53.633Z,7.15
2022-10-20T12:32:35.518Z,6.43
2022-10-20T12:35:24.151Z,6.30
2022-10-20T12:37:56.714Z,8.52
2022-10-20T12:40:31.302Z,6.80
2022-10-20T12:42:59.775Z,7.78
2022-10-20T12:45:36.853Z,7.70
2022-10-20T12:48:06.826Z,7.53
2022-10-20T12:50:38.797Z,8.40
2022-10-20T12:53:19.291Z,5.80
2022-10-20T12:55:58.495Z,6.70
2022-10-20T12:58:29.020Z,6.43
2022-10-20T13:01:17.551Z,7.00
2022-10-20T13:03:48.483Z,6.05
2022-10-20T13:06:41.691Z,6.72
2022-10-20T13:09:21.033Z,6.07
2022-10-20T13:12:06.161Z,6.28
2022-10-20T13:14:52.020Z,6.78
2022-10-20T13:17:55.396Z,6.50
2022-10-20T13:20:29.363Z,5.93
2022-10-20T13:25:39.785Z,5.57
2022-10-20T13:28:19.027Z,5.28
2022-10-20T13:31:07.021Z,6.07
2022-10-20T13:36:53.325Z,5.72
2022-10-20T13:39:28.577Z,6.13
2022-10-20T13:42:06.703Z,5.53
2022-10-20T13:44:45.621Z,5.85
2022-10-20T13:47:38.604Z,5.55
2022-10-20T13:50:11.657Z,5.75
2022-10-20T13:52:42.995Z,7.20
2022-10-20T13:55:17.975Z,6.22
2022-10-20T13:57:55.482Z,7.07
2022-10-20T14:00:27.667Z,6.68
2022-10-20T14:02:59.064Z,6.50
2022-10-20T14:05:28.793Z,6.78
2022-10-20T14:07:57.033Z,5.82
2022-10-20T14:10:28.862Z,6.45
2022-10-20T14:12:57.748Z,6.82
2022-10-20T14:15:31.116Z,7.25
2022-10-20T14:18:02.228Z,6.72
2022-10-20T14:20:31.552Z,7.95
2022-10-20T14:23:01.380Z,5.90
2022-10-20T14:25:31.390Z,6.32
2022-10-20T14:28:01.852Z,7.28
2022-10-20T14:30:35.365Z,6.70
2022-10-20T14:33:05.365Z,5.65
2022-10-20T14:35:40.665Z,6.40
2022-10-20T14:38:18.443Z,6.63
2022-10-20T14:40:52.400Z,6.72
2022-10-20T14:43:25.064Z,6.97
2022-10-20T14:45:56.152Z,6.50
2022-10-20T14:48:25.728Z,6.60
2022-10-20T14:50:54.896Z,8.80
2022-10-20T14:53:32.422Z,10.48
2022-10-20T14:56:02.348Z,8.88
2022-10-20T14:58:36.278Z,6.97
2022-10-20T15:01:25.844Z,6.93
2022-10-20T15:04:16.633Z,6.45
2022-10-20T15:06:45.020Z,5.25
2022-10-20T15:09:28.709Z,5.50
2022-10-20T15:11:56.512Z,6.32
2022-10-20T15:14:24.401Z,6.32
2022-10-20T15:16:53.515Z,7.47
2022-10-20T15:19:30.256Z,7.93
2022-10-20T15:22:01.408Z,7.30
2022-10-20T15:24:29.853Z,8.68
2022-10-20T15:26:58.889Z,6.55
2022-10-20T15:29:27.393Z,7.13
2022-10-20T15:31:56.794Z,8.00
2022-10-20T15:34:25.456Z,6.97
2022-10-20T15:36:53.280Z,6.97
2022-10-20T15:39:21.055Z,7.50
2022-10-20T15:41:51.558Z,6.60
2022-10-20T15:44:22.813Z,8.00
2022-10-20T15:46:53.327Z,6.75
2022-10-20T15:49:23.763Z,7.00
2022-10-20T15:51:51.489Z,7.85
2022-10-20T15:54:21.060Z,6.57
2022-10-20T15:56:49.047Z,7.57
2022-10-20T15:59:16.748Z,6.60
2022-10-20T16:01:44.569Z,7.38
2022-10-20T16:04:19.729Z,6.47
2022-10-20T16:06:48.785Z,7.90
2022-10-20T16:09:16.629Z,6.75
2022-10-20T16:11:44.607Z,6.30
2022-10-20T16:14:12.530Z,7.00
2022-10-20T16:16:40.488Z,7.55
2022-10-20T16:19:08.816Z,7.20
2022-10-20T16:21:36.522Z,7.25
2022-10-20T16:24:05.977Z,8.32
2022-10-20T16:26:33.714Z,7.95
2022-10-20T16:29:01.486Z,8.85
2022-10-20T16:31:29.413Z,8.27
2022-10-20T16:33:59.879Z,7.72
2022-10-20T16:36:27.607Z,7.60
2022-10-20T16:38:56.875Z,7.18
2022-10-20T16:41:26.001Z,8.57
2022-10-20T16:43:55.394Z,8.38
2022-10-20T16:46:25.235Z,8.15
2022-10-20T16:48:52.970Z,8.25
2022-10-20T16:51:20.697Z,8.27
2022-10-20T16:53:48.442Z,8.45
2022-10-20T16:56:19.830Z,9.57
2022-10-20T16:58:50.587Z,8.70
2022-10-20T17:01:20.323Z,9.60
2022-10-20T17:03:50.762Z,7.95
2022-10-20T17:06:20.309Z,10.00
2022-10-20T17:08:51.123Z,9.15
2022-10-20T17:11:21.063Z,9.50
2022-10-20T17:13:50.809Z,10.20
2022-10-20T17:16:22.449Z,10.35
2022-10-20T17:18:53.791Z,9.48
2022-10-20T17:21:22.086Z,9.52
2022-10-20T17:23:49.940Z,8.65
2022-10-20T17:26:19.756Z,9.40
2022-10-20T17:28:48.909Z,10.30
2022-10-20T17:31:18.850Z,10.57
2022-10-20T17:33:47.109Z,9.23
2022-10-20T17:36:15.510Z,9.63
2022-10-20T17:38:44.092Z,8.85
2022-10-20T17:41:14.256Z,9.55
2022-10-20T17:43:42.244Z,11.07
2022-10-20T17:46:13.125Z,10.30
2022-10-20T17:48:42.559Z,11.13
2022-10-20T17:51:14.188Z,11.60
2022-10-20T17:53:45.274Z,9.95
2022-10-20T17:56:14.880Z,10.63
2022-10-20T17:58:44.473Z,10.02
2022-10-20T18:01:13.960Z,10.18
2022-10-20T18:03:46.071Z,8.90
2022-10-20T18:06:16.162Z,9.73
2022-10-20T18:08:44.185Z,8.98
2022-10-20T18:11:14.029Z,10.00
2022-10-20T18:13:41.839Z,8.98
2022-10-20T18:16:11.621Z,10.32
2022-10-20T18:18:40.160Z,9.60
2022-10-20T18:21:11.618Z,9.23
2022-10-20T18:23:41.242Z,10.23
2022-10-20T18:26:11.559Z,8.32
2022-10-20T18:28:41.970Z,9.43
2022-10-20T18:31:17.169Z,7.55
2022-10-20T18:33:45.573Z,8.80
2022-10-20T18:36:16.800Z,8.38
2022-10-20T18:38:46.008Z,7.85
2022-10-20T18:41:15.740Z,8.35
2022-10-20T18:43:45.337Z,7.90
2022-10-20T18:46:14.678Z,7.55
2022-10-20T18:48:43.261Z,7.78
2022-10-20T18:51:12.184Z,8.20
2022-10-20T18:53:42.642Z,7.95
2022-10-20T18:56:13.688Z,8.05
2022-10-20T18:58:43.555Z,7.55
2022-10-20T19:01:13.358Z,7.72
2022-10-20T19:03:42.730Z,8.18
2022-10-20T19:06:12.922Z,7.95
2022-10-20T19:08:42.746Z,8.48
2022-10-20T19:11:13.007Z,6.95
2022-10-20T19:13:41.193Z,8.18
2022-10-20T19:16:10.938Z,7.93
2022-10-20T19:18:40.462Z,7.97
2022-10-20T19:21:09.364Z,7.50
2022-10-20T19:23:39.843Z,8.02
2022-10-20T19:26:10.897Z,7.85
2022-10-20T19:28:40.831Z,7.18
2022-10-20T19:31:20.905Z,7.68
2022-10-20T19:33:51.192Z,7.70
2022-10-20T19:36:19.269Z,6.60
2022-10-20T19:38:47.075Z,7.78
2022-10-20T19:41:16.452Z,8.07
2022-10-20T19:43:45.418Z,7.25
2022-10-20T19:46:16.109Z,9.32
2022-10-20T19:48:45.732Z,8.90
2022-10-20T19:51:14.523Z,9.02
2022-10-20T19:53:42.443Z,8.15
2022-10-20T19:56:11.130Z,9.18
2022-10-20T19:58:45.611Z,8.43
2022-10-20T20:01:15.215Z,8.30
2022-10-20T20:03:43.745Z,9.63
2022-10-20T20:06:16.406Z,10.27
2022-10-20T20:08:45.598Z,8.65
2022-10-20T20:11:22.713Z,7.60
2022-10-20T20:13:52.417Z,9.45
2022-10-20T20:16:21.174Z,8.48
2022-10-20T20:18:49.402Z,8.68
2022-10-20T20:21:18.011Z,6.95
2022-10-20T20:24:01.638Z,7.32
2022-10-20T20:26:30.449Z,7.38
2022-10-20T20:29:00.444Z,7.57
2022-10-20T20:31:29.276Z,6.90
2022-10-20T20:33:57.744Z,7.30
2022-10-20T20:36:27.640Z,6.05
2022-10-20T20:38:57.522Z,5.80
2022-10-20T20:41:26.786Z,5.32
2022-10-20T20:43:55.016Z,5.70
2022-10-20T20:46:28.761Z,5.72
2022-10-20T20:48:57.082Z,5.93
2022-10-20T20:51:26.867Z,5.70
2022-10-20T20:53:54.572Z,5.60
2022-10-20T20:56:24.627Z,5.43
2022-10-20T20:58:55.657Z,5.10
2022-10-20T21:01:27.221Z,6.50
2022-10-20T21:03:55.947Z,5.80
2022-10-20T21:06:33.131Z,5.82
2022-10-20T21:09:02.208Z,5.50
2022-10-20T21:11:30.253Z,7.32
2022-10-20T21:13:59.659Z,7.30
2022-10-20T21:16:30.336Z,7.47
2022-10-20T21:18:59.772Z,7.40
2022-10-20T21:21:29.687Z,7.75
2022-10-20T21:23:58.784Z,7.60
2022-10-20T21:26:29.266Z,7.53
2022-10-20T21:28:57.689Z,8.95
2022-10-20T21:31:28.488Z,7.88
2022-10-20T21:33:58.321Z,9.30
2022-10-20T21:36:27.116Z,8.98
2022-10-20T21:38:55.256Z,8.02
2022-10-20T21:41:24.768Z,8.10
2022-10-20T21:43:54.389Z,7.57
2022-10-20T21:46:25.383Z,8.13
2022-10-20T21:48:56.278Z,7.95
2022-10-20T21:51:25.944Z,6.57
2022-10-20T21:53:56.345Z,7.50
2022-10-20T21:56:24.411Z,7.10
2022-10-20T21:58:52.268Z,6.57
2022-10-20T22:01:22.107Z,6.22
2022-10-20T22:03:50.979Z,6.35
2022-10-20T22:06:22.089Z,6.47
2022-10-20T22:08:51.316Z,7.03
2022-10-20T22:11:21.410Z,6.22
2022-10-20T22:13:49.465Z,5.68
2022-10-20T22:16:19.928Z,6.43
2022-10-20T22:18:47.715Z,6.45
2022-10-20T22:21:18.564Z,5.57
2022-10-20T22:23:47.634Z,6.22
2022-10-20T22:26:15.926Z,5.85
2022-10-20T22:28:43.635Z,6.03
2022-10-20T22:31:12.557Z,6.07
2022-10-20T22:33:42.303Z,5.82
2022-10-20T22:36:10.022Z,6.78
2022-10-20T22:38:37.731Z,6.63
2022-10-20T22:41:06.974Z,6.70
2022-10-20T22:43:34.714Z,5.88
2022-10-20T22:46:02.461Z,6.72
2022-10-20T22:48:30.394Z,7.07
2022-10-20T22:50:58.132Z,6.80
2022-10-20T22:53:26.480Z,5.70
2022-10-20T22:55:54.214Z,7.15
2022-10-20T22:58:23.800Z,6.97
2022-10-20T23:00:51.595Z,6.07
2022-10-20T23:03:19.363Z,6.60
2022-10-20T23:05:47.061Z,6.90
2022-10-20T23:08:14.747Z,7.30
2022-10-20T23:10:42.463Z,7.05
2022-10-20T23:13:10.140Z,9.43
2022-10-20T23:15:39.188Z,7.90
2022-10-20T23:18:06.872Z,8.35
2022-10-20T23:20:34.561Z,7.90
2022-10-20T23:23:02.249Z,7.72
2022-10-20T23:25:30.025Z,7.63
2022-10-20T23:27:57.796Z,8.02
2022-10-20T23:30:25.521Z,8.30
2022-10-20T23:32:54.541Z,8.68
2022-10-20T23:35:22.241Z,9.27
2022-10-20T23:37:49.964Z,9.88
2022-10-20T23:40:17.868Z,9.77
2022-10-20T23:42:45.604Z,10.93
2022-10-20T23:45:13.332Z,12.50
2022-10-20T23:47:41.106Z,12.30
2022-10-20T23:50:10.603Z,10.70
2022-10-20T23:55:08.279Z,11.93
2022-10-20T23:57:37.528Z,11.15
